Sunday, December 17, 2017, 10:04 PM EST
Back to Local

KLOM, Philadelphia, Wings Field Airport

Location: Blue Bell, PA, United States Lat: 40.138
Local Time: 10:04 PM EST ( 3:04 GMT) Lon: -75.265
Time Zone: US/Eastern Elev: 301 ft

Show me the last for .
Show Coded

Time T Td Feel RH Dir Speed Gust Alt SLP Vis Weather Sky Remarks
2017-12-17 21:35 32 30 - 92 - Calm - 30.22 - 10 OVC100 None
2017-12-17 21:10 32 30 - 92 - Calm - 30.23 - 10 OVC110 None
2017-12-17 20:55 32 30 - 92 - Calm - 30.23 - 10 OVC110 None
2017-12-17 20:35 32 30 - 92 - Calm - 30.23 - 10 BKN120 None
2017-12-17 20:15 32 28 - 86 - Calm - 30.23 - 10 SCT120 None
2017-12-17 19:55 32 28 - 86 - Calm - 30.23 - 10 CLR None
2017-12-17 19:35 32 28 - 86 - Calm - 30.24 - 10 CLR None
2017-12-17 19:15 32 30 - 92 - Calm - 30.25 - 10 SCT110 None
2017-12-17 18:55 32 28 - 86 - Calm - 30.25 - 10 BKN110 None
2017-12-17 18:35 34 30 - 86 - Calm - 30.25 - 10 OVC110 None
2017-12-17 18:15 34 28 - 80 - Calm - 30.25 - 10 BKN120 None
2017-12-17 17:55 34 28 - 80 - Calm - 30.24 - 10 SCT120 None
2017-12-17 17:35 36 28 - 74 - Calm - 30.23 - 10 CLR None
2017-12-17 17:15 36 28 - 74 - Calm - 30.23 - 10 CLR None
2017-12-17 16:55 36 28 - 74 - Calm - 30.23 - 10 CLR None
2017-12-17 16:35 36 28 - 74 - Calm - 30.23 - 10 CLR None
2017-12-17 16:15 37 28 - 69 - Calm - 30.22 - 10 CLR None
2017-12-17 15:55 37 28 - 69 - Calm - 30.22 - 10 CLR None
2017-12-17 15:35 37 28 - 69 - Calm - 30.23 - 10 CLR None
2017-12-17 15:15 37 28 - 69 - Calm - 30.21 - 10 CLR None
2017-12-17 14:55 37 28 - 69 - Calm - 30.22 - 10 CLR None
2017-12-17 14:35 39 28 - 64 - Calm - 30.23 - 10 CLR None
2017-12-17 14:15 39 28 - 64 - Calm - 30.22 - 10 CLR None
2017-12-17 13:55 39 28 - 64 - Calm - 30.23 - 10 CLR None
2017-12-17 13:35 39 28 - 64 - Calm - 30.23 - 10 CLR None
2017-12-17 13:15 39 28 - 64 - Calm - 30.23 - 10 CLR None
2017-12-17 12:55 37 28 - 69 - Calm - 30.24 - 10 CLR None
2017-12-17 12:35 37 28 - 69 - Calm - 30.25 - 10 CLR None
2017-12-17 12:15 37 28 - 69 - Calm - 30.26 - 10 CLR None
2017-12-17 11:55 37 27 - 64 - Calm - 30.27 - 10 CLR None
2017-12-17 11:35 37 27 - 64 - Calm - 30.28 - 10 CLR None
2017-12-17 11:15 36 27 - 69 - Calm - 30.29 - 10 CLR None
2017-12-17 10:55 36 27 33 69 80° 3 - 30.30 - 10 CLR None
2017-12-17 10:35 34 27 30 74 70° 5 - 30.30 - 10 CLR None
2017-12-17 10:15 34 27 31 74 70° 3 - 30.29 - 10 CLR None
2017-12-17 09:55 32 27 27 80 80° 5 - 30.30 - 10 CLR None
2017-12-17 09:35 32 27 27 80 70° 5 - 30.29 - 10 CLR None
2017-12-17 09:15 32 27 29 80 70° 3 - 30.29 - 10 CLR None
2017-12-17 08:55 30 28 - 92 - Calm - 30.29 - 10 CLR None
2017-12-17 08:35 28 28 - 100 - Calm - 30.29 - 7 CLR None
2017-12-17 08:15 28 27 - 92 - Calm - 30.29 - 7 CLR None
2017-12-17 07:55 27 27 - 100 - Calm - 30.28 - 7 CLR None
2017-12-17 07:35 27 27 - 100 - Calm - 30.28 - 7 CLR None
2017-12-17 07:15 27 27 - 100 - Calm - 30.28 - 10 CLR None
2017-12-17 06:55 27 27 - 100 - Calm - 30.27 - 7 CLR None
2017-12-17 06:35 27 25 - 92 - Calm - 30.26 - 7 CLR None
2017-12-17 06:15 27 27 - 100 - Calm - 30.26 - 7 CLR None
2017-12-17 05:55 27 27 - 100 - Calm - 30.26 - 7 CLR None
2017-12-17 05:35 27 27 - 100 - Calm - 30.25 - 7 CLR None
2017-12-17 05:15 27 27 - 100 - Calm - 30.25 - 10 CLR None
2017-12-17 04:55 28 27 - 92 - Calm - 30.24 - 10 CLR None
2017-12-17 04:35 30 27 - 86 - Calm - 30.24 - 10 CLR None
2017-12-17 04:15 30 28 27 92 60° 3 - 30.24 - 10 SCT060 None
2017-12-17 03:55 30 28 - 92 - Calm - 30.25 - 10 BKN060 None
2017-12-17 03:35 32 28 - 86 - Calm - 30.25 - 10 OVC060 None
2017-12-17 03:15 32 28 - 86 - Calm - 30.25 - 10 OVC060 None
2017-12-17 02:55 32 28 - 86 - Calm - 30.25 - 10 OVC060 None
2017-12-17 02:35 32 28 29 86 60° 3 - 30.23 - 10 OVC060 None
2017-12-17 02:15 32 28 - 86 - Calm - 30.24 - 10 OVC060 None
2017-12-17 01:55 32 28 - 86 - Calm - 30.23 - 10 OVC060 None
2017-12-17 01:35 34 28 31 80 50° 3 - 30.22 - 10 OVC060 None
2017-12-17 01:15 32 28 29 86 50° 3 - 30.21 - 10 OVC060 None
2017-12-17 00:55 32 28 - 86 - Calm - 30.21 - 10 OVC060 None
2017-12-17 00:35 32 28 - 86 - Calm - 30.20 - 10 OVC060 None
2017-12-17 00:15 32 28 - 86 - Calm - 30.21 - 10 OVC060 None
2017-12-16 23:55 32 28 - 86 - Calm - 30.21 - 10 OVC060 None
2017-12-16 23:35 32 28 - 86 - Calm - 30.20 - 10 BKN060 OVC080 None
2017-12-16 23:15 32 28 - 86 - Calm - 30.20 - 10 BKN060 OVC080 None
2017-12-16 22:55 32 28 - 86 - Calm - 30.19 - 10 OVC060 None
2017-12-16 22:35 32 28 - 86 - Calm - 30.19 - 10 OVC050 None
2017-12-16 22:15 32 28 - 86 - Calm - 30.19 - 10 OVC050 None

Support USWX by starting your Amazon purchase here.